Time;durP1;ratioP1;P1;durP2;ratioP2;P2;SDS_P1;SDS_P2;PMS_P1;PMS_P2;Temp;Humidity;BMP_temperature;BMP_pressure;BME280_temperature;BME280_humidity;BME280_pressure;Samples;Min_cycle;Max_cycle;Signal;HPM_P1;HPM_P2
2022/03/18 00:01:29;;;;;;;4.88;3.50;;;19.30;47.40;;;;;;6194954;28;20042;-69
2022/03/18 00:04:30;;;;;;;4.38;3.30;;;19.30;47.40;;;;;;6196410;28;20030;-69
2022/03/18 00:07:31;;;;;;;4.40;3.47;;;19.30;48.10;;;;;;6199727;28;20057;-69
2022/03/18 00:10:31;;;;;;;5.93;3.60;;;19.30;47.40;;;;;;6199549;28;20054;-69
2022/03/18 00:13:32;;;;;;;3.88;3.17;;;19.30;47.50;;;;;;6199611;28;20073;-69
2022/03/18 00:16:32;;;;;;;4.00;3.10;;;19.30;47.40;;;;;;6199461;28;20430;-69
2022/03/18 00:19:34;;;;;;;3.75;2.80;;;19.30;47.40;;;;;;6198693;28;20125;-69
2022/03/18 00:22:35;;;;;;;3.67;2.83;;;19.30;47.40;;;;;;6198873;28;20035;-69
2022/03/18 00:25:36;;;;;;;3.78;3.05;;;19.30;47.50;;;;;;6198299;28;20104;-69
2022/03/18 00:28:38;;;;;;;3.95;3.05;;;19.30;47.40;;;;;;6198329;28;20022;-69
2022/03/18 00:31:38;;;;;;;4.63;3.17;;;19.30;47.40;;;;;;6198073;28;20019;-69
2022/03/18 00:34:39;;;;;;;4.28;3.10;;;19.30;47.40;;;;;;6198712;28;20303;-69
2022/03/18 00:37:40;;;;;;;3.65;3.15;;;19.30;47.50;;;;;;6198562;28;20136;-69
2022/03/18 00:40:44;;;;;;;4.32;3.03;;;19.30;47.50;;;;;;6198270;28;20056;-69
2022/03/18 00:43:45;;;;;;;4.65;3.45;;;19.30;47.50;;;;;;6198169;28;20785;-69
2022/03/18 00:46:46;;;;;;;4.28;2.95;;;19.30;47.40;;;;;;6198246;28;20022;-69
2022/03/18 00:53:06;;;;;;;4.22;3.20;;;19.30;47.50;;;;;;6198110;28;20057;-69
2022/03/18 00:56:06;;;;;;;4.90;3.10;;;19.30;47.40;;;;;;6198223;28;20028;-69
2022/03/18 00:59:07;;;;;;;5.15;3.17;;;19.30;47.50;;;;;;6198253;28;20031;-69
2022/03/18 01:02:07;;;;;;;4.22;3.08;;;19.30;47.50;;;;;;6198226;28;20089;-69
2022/03/18 01:05:08;;;;;;;3.60;2.80;;;19.30;47.50;;;;;;6198288;28;20044;-69
2022/03/18 01:08:08;;;;;;;3.53;3.10;;;19.30;47.50;;;;;;6198267;28;20424;-69
2022/03/18 01:11:09;;;;;;;3.97;2.90;;;19.30;47.50;;;;;;6198027;28;20037;-69
2022/03/18 01:14:10;;;;;;;4.10;3.10;;;19.30;47.50;;;;;;6198270;28;20046;-69
2022/03/18 01:17:10;;;;;;;4.10;2.92;;;19.30;47.50;;;;;;6197888;28;20034;-69
2022/03/18 01:20:11;;;;;;;3.72;2.70;;;19.30;47.50;;;;;;6198262;28;20433;-69
2022/03/18 01:23:12;;;;;;;4.07;3.08;;;19.20;47.40;;;;;;6198049;28;20033;-69
2022/03/18 01:26:13;;;;;;;5.25;3.20;;;19.20;47.40;;;;;;6197328;28;20052;-69
2022/03/18 01:29:13;;;;;;;3.60;2.70;;;19.20;47.40;;;;;;6197716;28;20023;-69
2022/03/18 01:32:14;;;;;;;3.20;2.50;;;19.20;47.40;;;;;;6196485;28;20031;-69
2022/03/18 01:35:14;;;;;;;3.65;2.72;;;19.30;47.50;;;;;;6198012;28;20033;-69
2022/03/18 01:38:15;;;;;;;3.60;2.58;;;19.20;47.40;;;;;;6197559;28;20026;-69
2022/03/18 01:41:15;;;;;;;3.80;2.88;;;19.20;47.40;;;;;;6197445;28;20112;-68
2022/03/18 01:44:16;;;;;;;3.25;2.55;;;19.20;47.40;;;;;;6197454;28;20027;-69
2022/03/18 01:47:16;;;;;;;4.32;3.10;;;19.20;47.40;;;;;;6197330;28;20065;-69
2022/03/18 01:50:17;;;;;;;3.55;2.55;;;19.30;47.50;;;;;;6197582;28;20690;-69
2022/03/18 01:53:17;;;;;;;3.80;2.40;;;19.20;47.40;;;;;;6197398;28;20034;-69
2022/03/18 01:56:18;;;;;;;4.88;2.85;;;19.30;47.50;;;;;;6197261;28;20488;-69
2022/03/18 01:59:18;;;;;;;3.20;2.58;;;19.20;47.40;;;;;;6197071;28;20030;-69
2022/03/18 02:02:20;;;;;;;2.80;2.28;;;19.30;47.50;;;;;;6196906;28;20034;-70
2022/03/18 02:05:21;;;;;;;3.50;2.60;;;19.20;47.40;;;;;;6196957;28;20125;-69
2022/03/18 02:08:22;;;;;;;3.40;2.58;;;19.20;47.40;;;;;;6197050;28;20026;-69
2022/03/18 02:11:23;;;;;;;4.18;2.50;;;19.30;47.60;;;;;;6196807;28;20033;-69
2022/03/18 02:14:34;;;;;;;3.55;2.75;;;19.20;47.40;;;;;;6196977;28;20030;-69
2022/03/18 02:17:37;;;;;;;3.58;2.63;;;19.20;47.50;;;;;;6196504;28;20023;-70
2022/03/18 02:20:37;;;;;;;3.45;2.50;;;19.30;47.60;;;;;;6196599;28;20034;-69
2022/03/18 02:23:38;;;;;;;3.58;2.53;;;19.20;47.40;;;;;;6196664;28;20033;-70
2022/03/18 02:26:38;;;;;;;3.05;2.50;;;19.20;47.50;;;;;;6195367;28;20077;-70
2022/03/18 02:29:40;;;;;;;3.58;2.42;;;19.20;47.40;;;;;;6196138;28;20034;-69
2022/03/18 02:32:41;;;;;;;3.25;2.45;;;19.20;47.40;;;;;;6196549;28;20363;-69
2022/03/18 02:35:42;;;;;;;3.88;2.50;;;19.20;47.50;;;;;;6196261;28;20022;-69
2022/03/18 02:38:44;;;;;;;3.10;2.25;;;19.30;47.60;;;;;;6196306;28;20469;-69
2022/03/18 02:41:45;;;;;;;3.15;2.13;;;19.20;47.50;;;;;;6196214;28;20034;-68
2022/03/18 02:44:45;;;;;;;4.50;2.67;;;19.20;47.50;;;;;;6195632;28;20037;-69
2022/03/18 02:47:46;;;;;;;3.13;2.40;;;19.20;47.50;;;;;;6195735;28;20034;-70
2022/03/18 02:50:46;;;;;;;2.40;2.00;;;19.30;47.50;;;;;;6196178;28;20018;-70
2022/03/18 02:53:47;;;;;;;2.80;2.10;;;19.20;47.40;;;;;;6195848;28;20029;-69
2022/03/18 02:56:47;;;;;;;3.03;2.00;;;19.20;47.50;;;;;;6195953;28;20026;-69
2022/03/18 02:59:48;;;;;;;3.63;2.58;;;19.30;47.60;;;;;;6195895;28;20081;-70
2022/03/18 03:02:48;;;;;;;3.20;2.10;;;19.30;47.60;;;;;;6195929;28;20505;-69
2022/03/18 03:09:08;;;;;;;3.33;2.13;;;19.20;47.50;;;;;;6195604;28;20425;-69
2022/03/18 03:12:09;;;;;;;3.03;2.25;;;19.30;47.60;;;;;;6195651;28;20065;-70
2022/03/18 03:15:10;;;;;;;3.30;2.33;;;19.20;47.50;;;;;;6195723;28;20026;-69
2022/03/18 03:18:10;;;;;;;2.58;1.95;;;19.30;47.60;;;;;;6195425;28;20026;-69
2022/03/18 03:21:12;;;;;;;3.05;1.90;;;19.20;47.40;;;;;;6195375;28;20070;-69
2022/03/18 03:24:14;;;;;;;3.08;2.28;;;19.20;47.50;;;;;;6195212;28;20658;-69
2022/03/18 03:27:14;;;;;;;2.80;1.95;;;19.20;47.50;;;;;;6195005;28;20046;-70
2022/03/18 03:30:15;;;;;;;3.22;2.40;;;19.30;47.60;;;;;;6195565;28;20113;-69
2022/03/18 03:33:16;;;;;;;3.70;2.28;;;19.20;47.50;;;;;;6195299;28;20026;-69
2022/03/18 03:36:17;;;;;;;2.72;1.95;;;19.20;47.50;;;;;;6195600;28;20073;-69
2022/03/18 03:39:18;;;;;;;3.10;2.25;;;19.20;47.50;;;;;;6197887;28;20026;-69
2022/03/18 03:42:19;;;;;;;2.67;2.03;;;19.20;47.50;;;;;;6199890;28;20022;-69
2022/03/18 03:45:19;;;;;;;4.20;2.33;;;19.20;47.50;;;;;;6199279;28;20034;-69
2022/03/18 03:48:20;;;;;;;2.80;1.85;;;19.20;47.50;;;;;;6198029;28;20061;-69
2022/03/18 03:51:20;;;;;;;3.20;2.20;;;19.20;47.50;;;;;;6198328;28;20129;-69
2022/03/18 03:54:21;;;;;;;2.80;1.92;;;19.20;47.50;;;;;;6199736;28;20037;-69
2022/03/18 03:57:21;;;;;;;3.25;2.00;;;19.20;47.50;;;;;;6199335;28;20061;-70
2022/03/18 04:00:22;;;;;;;2.03;1.77;;;19.20;47.50;;;;;;6199054;28;20040;-69
2022/03/18 04:03:22;;;;;;;2.88;2.15;;;19.20;47.50;;;;;;6198792;28;20489;-69
2022/03/18 04:06:23;;;;;;;3.17;2.03;;;19.20;47.50;;;;;;6199309;28;20477;-70
2022/03/18 04:09:24;;;;;;;3.17;2.38;;;19.20;47.60;;;;;;6198942;28;20031;-69
2022/03/18 04:12:24;;;;;;;2.67;2.00;;;19.20;47.60;;;;;;6198774;28;20034;-69
2022/03/18 04:15:26;;;;;;;2.38;1.95;;;19.30;47.60;;;;;;6199445;28;20485;-70
2022/03/18 04:18:27;;;;;;;2.83;2.08;;;19.30;47.60;;;;;;6198912;28;20034;-69
2022/03/18 04:21:27;;;;;;;3.17;2.00;;;19.20;47.50;;;;;;6199268;28;20886;-69
2022/03/18 04:24:28;;;;;;;3.03;2.00;;;19.30;47.60;;;;;;6199105;28;20113;-70
2022/03/18 04:27:28;;;;;;;1.95;1.48;;;19.20;47.50;;;;;;6198829;28;20129;-70
2022/03/18 04:30:29;;;;;;;3.40;2.05;;;19.30;47.60;;;;;;6198831;28;20037;-69
2022/03/18 04:33:29;;;;;;;3.05;1.95;;;19.20;48.20;;;;;;6198904;28;20030;-69
2022/03/18 04:36:30;;;;;;;2.63;1.83;;;19.20;47.50;;;;;;6199258;28;20424;-69
2022/03/18 04:39:31;;;;;;;2.90;2.10;;;19.20;47.50;;;;;;6198927;28;20108;-69
2022/03/18 04:42:31;;;;;;;2.33;1.52;;;19.20;47.50;;;;;;6198785;28;20530;-70
2022/03/18 04:45:32;;;;;;;2.80;1.90;;;19.20;47.50;;;;;;6198867;28;20106;-70
2022/03/18 04:48:32;;;;;;;2.80;1.65;;;19.20;47.50;;;;;;6198522;28;20030;-69
2022/03/18 04:51:33;;;;;;;2.60;2.10;;;19.20;47.50;;;;;;6197785;28;20030;-69
2022/03/18 04:54:33;;;;;;;4.30;2.33;;;19.20;47.50;;;;;;6198712;28;20028;-70
2022/03/18 04:57:35;;;;;;;2.17;1.67;;;19.20;47.50;;;;;;6198713;28;20444;-70
2022/03/18 05:00:36;;;;;;;2.85;2.05;;;19.20;47.50;;;;;;6198420;28;20037;-70
2022/03/18 05:03:37;;;;;;;2.97;1.95;;;19.20;47.50;;;;;;6198352;28;20027;-69
2022/03/18 05:06:38;;;;;;;3.90;2.03;;;19.20;47.60;;;;;;6198376;28;20027;-69
2022/03/18 05:09:39;;;;;;;2.95;2.03;;;19.20;47.50;;;;;;6198527;28;20040;-69
2022/03/18 05:12:40;;;;;;;2.60;1.90;;;19.20;47.50;;;;;;6198153;28;20022;-69
2022/03/18 05:15:41;;;;;;;3.50;1.95;;;19.20;48.00;;;;;;6198290;28;20037;-69
2022/03/18 05:18:42;;;;;;;2.65;1.70;;;19.20;47.60;;;;;;6197981;28;20116;-70
2022/03/18 05:21:42;;;;;;;2.92;2.20;;;19.20;47.50;;;;;;6196601;28;20034;-70
2022/03/18 05:24:43;;;;;;;2.92;1.80;;;19.20;47.50;;;;;;6198396;28;20097;-69
2022/03/18 05:27:44;;;;;;;2.15;1.60;;;19.20;47.50;;;;;;6197899;28;20124;-69
2022/03/18 05:30:45;;;;;;;3.15;1.92;;;19.20;47.50;;;;;;6197659;28;20026;-70
2022/03/18 05:33:45;;;;;;;3.13;1.73;;;19.20;47.40;;;;;;6197778;28;20027;-70
2022/03/18 05:36:46;;;;;;;2.30;1.90;;;19.20;47.40;;;;;;6197740;28;20037;-70
2022/03/18 05:39:46;;;;;;;3.67;2.10;;;19.20;47.40;;;;;;6197521;28;20038;-69
2022/03/18 05:42:47;;;;;;;2.63;1.70;;;19.30;47.50;;;;;;6197316;28;20165;-69
2022/03/18 05:45:48;;;;;;;2.70;1.75;;;19.20;47.40;;;;;;6197758;28;20039;-69
2022/03/18 05:48:48;;;;;;;2.35;1.65;;;19.20;47.40;;;;;;6196688;28;20034;-69
2022/03/18 05:51:49;;;;;;;1.92;1.40;;;19.30;47.40;;;;;;6185414;28;20026;-70
2022/03/18 05:54:49;;;;;;;2.13;1.58;;;19.30;47.40;;;;;;6206305;28;20053;-69
2022/03/18 05:57:52;;;;;;;2.95;1.83;;;19.30;47.40;;;;;;6203542;28;20623;-69
2022/03/18 06:00:53;;;;;;;2.05;1.60;;;19.30;47.50;;;;;;6194157;28;20393;-69
2022/03/18 06:03:54;;;;;;;3.65;2.10;;;19.30;47.50;;;;;;6171318;28;20050;-69
2022/03/18 06:06:55;;;;;;;2.63;1.63;;;19.30;47.50;;;;;;6173988;28;20026;-69
2022/03/18 06:13:15;;;;;;;1.90;1.42;;;19.30;47.40;;;;;;6195549;28;20026;-69
2022/03/18 06:16:16;;;;;;;2.35;1.63;;;19.30;47.50;;;;;;6195753;28;20386;-69
2022/03/18 06:19:21;;;;;;;3.15;1.83;;;19.30;47.50;;;;;;6195228;28;20105;-69
2022/03/18 06:22:21;;;;;;;2.47;1.80;;;19.30;47.40;;;;;;6194688;28;20033;-68
2022/03/18 06:25:23;;;;;;;1.95;1.63;;;19.30;47.40;;;;;;6194392;28;20484;-69
2022/03/18 06:28:24;;;;;;;2.88;1.50;;;19.30;47.50;;;;;;6194253;28;20050;-69
2022/03/18 06:31:24;;;;;;;2.53;1.80;;;19.30;47.40;;;;;;6195073;28;20033;-69
2022/03/18 06:34:25;;;;;;;2.58;1.50;;;19.30;47.40;;;;;;6195022;28;20054;-69
2022/03/18 06:37:26;;;;;;;2.55;1.60;;;19.30;47.30;;;;;;6183098;28;20120;-69
2022/03/18 06:40:26;;;;;;;1.90;1.48;;;19.30;47.40;;;;;;6170843;28;20031;-69
2022/03/18 06:43:27;;;;;;;2.50;1.45;;;19.30;47.40;;;;;;6183490;28;20105;-69
2022/03/18 06:46:28;;;;;;;2.95;1.60;;;19.30;47.40;;;;;;6180229;28;20109;-69
2022/03/18 06:49:31;;;;;;;4.38;2.00;;;19.30;47.40;;;;;;6195115;28;20050;-69
2022/03/18 06:52:32;;;;;;;2.53;1.52;;;19.30;47.30;;;;;;6194783;28;20390;-70
2022/03/18 06:55:32;;;;;;;3.13;1.88;;;19.30;47.30;;;;;;6194948;28;20026;-70
2022/03/18 06:58:34;;;;;;;3.15;1.60;;;19.30;47.40;;;;;;6219092;28;20117;-70
2022/03/18 07:01:35;;;;;;;3.55;1.80;;;19.30;47.40;;;;;;6194326;28;20046;-70
2022/03/18 07:04:35;;;;;;;4.75;2.05;;;19.30;47.40;;;;;;6207819;28;20060;-71
2022/03/18 07:07:36;;;;;;;4.72;1.80;;;19.30;47.40;;;;;;6219357;28;20084;-70
2022/03/18 07:10:36;;;;;;;3.00;1.90;;;19.30;47.40;;;;;;6196281;28;20053;-70
2022/03/18 07:13:37;;;;;;;1.98;1.50;;;19.30;47.40;;;;;;6196286;28;20027;-70
2022/03/18 07:19:57;;;;;;;2.55;1.83;;;19.30;47.40;;;;;;6196366;28;20043;-70
2022/03/18 07:23:08;;;;;;;5.63;1.40;;;19.30;47.40;;;;;;6196432;28;20045;-70
2022/03/18 07:26:09;;;;;;;3.90;2.53;;;19.30;47.40;;;;;;6196175;28;20081;-71
2022/03/18 07:29:09;;;;;;;4.85;1.63;;;19.30;47.50;;;;;;6195966;28;20038;-71
2022/03/18 07:32:10;;;;;;;3.13;1.80;;;19.30;47.50;;;;;;6195674;28;20026;-71
2022/03/18 07:35:11;;;;;;;4.68;2.00;;;19.30;47.50;;;;;;6195840;28;20018;-70
2022/03/18 07:38:11;;;;;;;3.88;1.90;;;19.40;47.50;;;;;;6194843;28;20161;-70
2022/03/18 07:41:12;;;;;;;2.88;1.77;;;19.30;47.40;;;;;;6195929;28;20042;-70
2022/03/18 07:44:12;;;;;;;4.68;1.63;;;19.30;47.50;;;;;;6195142;28;20030;-70
2022/03/18 07:47:13;;;;;;;3.45;1.85;;;19.30;47.50;;;;;;6174399;28;20394;-70
2022/03/18 07:50:19;;;;;;;3.22;1.67;;;19.30;47.50;;;;;;6171810;28;20034;-70
2022/03/18 07:53:20;;;;;;;3.13;1.50;;;19.30;47.40;;;;;;6171842;28;20081;-70
2022/03/18 07:56:21;;;;;;;2.92;1.70;;;19.30;47.50;;;;;;6184917;28;20037;-70
2022/03/18 07:59:21;;;;;;;3.00;1.48;;;19.30;47.50;;;;;;6219945;28;20425;-70
2022/03/18 08:02:22;;;;;;;2.45;1.65;;;19.30;47.50;;;;;;6220063;28;20505;-70
2022/03/18 08:05:23;;;;;;;2.95;1.60;;;19.30;47.50;;;;;;6219903;28;20036;-70
2022/03/18 08:08:23;;;;;;;3.80;1.70;;;19.30;47.50;;;;;;6218771;28;20029;-70
2022/03/18 08:11:24;;;;;;;8.80;1.88;;;19.30;47.50;;;;;;6206985;28;20022;-70
2022/03/18 08:14:25;;;;;;;4.07;1.63;;;19.30;47.50;;;;;;6195764;28;20899;-70
2022/03/18 08:17:26;;;;;;;2.00;1.20;;;19.30;47.50;;;;;;6195591;28;20058;-70
2022/03/18 08:20:27;;;;;;;3.08;1.60;;;19.30;47.50;;;;;;6195405;28;20042;-70
2022/03/18 08:23:29;;;;;;;2.42;1.60;;;19.30;47.50;;;;;;6194467;28;20026;-70
2022/03/18 08:26:29;;;;;;;3.13;1.55;;;19.30;47.50;;;;;;6197856;28;20078;-70
2022/03/18 08:29:30;;;;;;;2.42;1.42;;;19.30;47.60;;;;;;6199619;28;20018;-70
2022/03/18 08:32:30;;;;;;;3.00;1.52;;;19.30;47.40;;;;;;6199906;28;20050;-70
2022/03/18 08:35:31;;;;;;;13.18;2.50;;;19.30;47.10;;;;;;6199681;28;20026;-70
2022/03/18 08:38:32;;;;;;;15.00;2.70;;;19.30;45.60;;;;;;6199871;28;20038;-70
2022/03/18 08:41:33;;;;;;;7.80;2.25;;;19.30;45.00;;;;;;6197970;28;20152;-70
2022/03/18 08:44:33;;;;;;;9.10;2.25;;;19.30;45.60;;;;;;6195471;28;20058;-70
2022/03/18 08:47:34;;;;;;;6.45;1.83;;;19.30;46.20;;;;;;6203411;28;20022;-70
2022/03/18 08:50:35;;;;;;;4.60;1.83;;;19.30;46.40;;;;;;6199362;28;20470;-70
2022/03/18 08:53:36;;;;;;;6.82;1.92;;;19.40;46.60;;;;;;6199704;28;20042;-70
2022/03/18 08:56:37;;;;;;;4.97;1.77;;;19.40;46.70;;;;;;6203042;28;20030;-70
2022/03/18 08:59:37;;;;;;;6.50;2.08;;;19.30;46.70;;;;;;6199216;28;20668;-70
2022/03/18 09:02:38;;;;;;;8.32;1.77;;;19.30;46.80;;;;;;6196133;28;20036;-70
2022/03/18 09:05:39;;;;;;;5.82;1.98;;;19.40;46.90;;;;;;6198790;28;20030;-70
2022/03/18 09:08:40;;;;;;;8.65;2.00;;;19.30;46.90;;;;;;6199458;28;20030;-70
2022/03/18 09:11:41;;;;;;;4.40;1.90;;;19.30;46.90;;;;;;6198843;28;20019;-70
2022/03/18 09:14:42;;;;;;;3.72;1.85;;;19.30;46.90;;;;;;6198821;28;20023;-70
2022/03/18 09:17:42;;;;;;;5.35;1.80;;;19.30;47.00;;;;;;6199095;28;20026;-70
2022/03/18 09:20:43;;;;;;;6.28;1.90;;;19.30;47.00;;;;;;6198908;28;20233;-70
2022/03/18 09:23:43;;;;;;;3.28;1.42;;;19.30;47.00;;;;;;6195422;28;20109;-70
2022/03/18 09:26:44;;;;;;;3.65;1.42;;;19.30;47.10;;;;;;6198550;28;20528;-70
2022/03/18 09:29:45;;;;;;;2.80;1.58;;;19.40;47.10;;;;;;6198193;28;20084;-70
2022/03/18 09:32:45;;;;;;;3.80;1.52;;;19.30;47.20;;;;;;6198618;28;20031;-70
2022/03/18 09:35:46;;;;;;;6.22;2.08;;;19.30;47.20;;;;;;6198411;28;20042;-70
2022/03/18 09:38:48;;;;;;;6.82;2.30;;;19.30;46.60;;;;;;6197672;28;20026;-70
2022/03/18 09:41:49;;;;;;;6.45;2.15;;;19.30;46.40;;;;;;6198311;28;20421;-70
2022/03/18 09:44:49;;;;;;;4.35;1.90;;;19.30;45.60;;;;;;6198156;28;20030;-70
2022/03/18 09:47:51;;;;;;;8.18;2.28;;;19.30;46.60;;;;;;6198332;28;20114;-70
2022/03/18 09:50:52;;;;;;;6.78;2.22;;;19.30;46.60;;;;;;6197254;28;20385;-70
2022/03/18 09:53:53;;;;;;;3.53;1.67;;;19.40;46.70;;;;;;6197203;28;20041;-70
2022/03/18 09:56:54;;;;;;;10.48;2.30;;;19.30;46.70;;;;;;6208136;28;20034;-70
2022/03/18 09:59:55;;;;;;;6.03;2.00;;;19.30;46.70;;;;;;6222292;28;20109;-70
2022/03/18 10:03:13;;;;;;;7.78;2.22;;;19.40;46.80;;;;;;6206810;28;20035;-70
2022/03/18 10:06:13;;;;;;;6.05;2.20;;;19.30;47.00;;;;;;6197656;28;20114;-74
2022/03/18 10:09:14;;;;;;;10.05;1.77;;;19.40;46.70;;;;;;6196552;28;20030;-71
2022/03/18 10:12:33;;;;;;;6.43;1.60;;;19.40;46.70;;;;;;6195476;28;20054;-73
2022/03/18 10:15:34;;;;;;;6.60;1.80;;;19.50;46.60;;;;;;6195993;28;20022;-70
2022/03/18 10:18:47;;;;;;;8.88;2.00;;;19.50;46.50;;;;;;6177921;28;20496;-70
2022/03/18 10:22:06;;;;;;;7.75;1.95;;;19.50;46.30;;;;;;6171170;28;20042;-70
2022/03/18 10:25:07;;;;;;;5.65;1.92;;;19.50;46.00;;;;;;6180671;28;20026;-69
2022/03/18 10:28:11;;;;;;;7.47;1.98;;;19.60;46.00;;;;;;6195060;28;20058;-72
2022/03/18 10:31:21;;;;;;;4.67;1.60;;;19.60;46.00;;;;;;6195186;28;20026;-68
2022/03/18 10:37:54;;;;;;;5.82;1.60;;;19.60;46.20;;;;;;6184882;28;20046;-68
2022/03/18 10:40:55;;;;;;;8.48;1.90;;;19.60;46.50;;;;;;6195316;28;20049;-69
2022/03/18 10:43:56;;;;;;;3.80;1.63;;;19.60;46.40;;;;;;6186161;28;20046;-68
2022/03/18 10:46:57;;;;;;;7.72;2.00;;;19.60;46.30;;;;;;6171324;28;20051;-68
2022/03/18 10:50:17;;;;;;;8.02;1.83;;;19.60;46.20;;;;;;6170325;28;20038;-69
2022/03/18 10:53:19;;;;;;;4.88;1.70;;;19.60;46.10;;;;;;6170650;28;20099;-69
2022/03/18 10:56:19;;;;;;;3.63;1.73;;;19.70;46.20;;;;;;6191577;28;20034;-69
2022/03/18 10:59:22;;;;;;;5.05;1.83;;;19.60;46.10;;;;;;6219463;28;20053;-69
2022/03/18 11:02:23;;;;;;;5.13;1.60;;;19.60;46.40;;;;;;6199539;28;20450;-69
2022/03/18 11:05:26;;;;;;;4.30;1.63;;;19.60;46.70;;;;;;6202383;28;20021;-69
2022/03/18 11:08:35;;;;;;;4.38;1.80;;;19.60;46.60;;;;;;6218901;28;20604;-69
2022/03/18 11:11:38;;;;;;;6.05;1.40;;;19.60;46.70;;;;;;6206972;28;20061;-69
2022/03/18 11:14:38;;;;;;;4.05;1.63;;;19.60;46.70;;;;;;6219278;28;20677;-69
2022/03/18 11:17:42;;;;;;;5.93;1.50;;;19.60;46.80;;;;;;6218440;28;20041;-69
2022/03/18 11:20:43;;;;;;;4.97;1.42;;;19.50;46.70;;;;;;6194551;28;20042;-69
2022/03/18 11:23:45;;;;;;;5.75;1.40;;;19.50;46.70;;;;;;6193630;28;20030;-69
2022/03/18 11:26:49;;;;;;;2.65;1.35;;;19.50;46.70;;;;;;6194073;28;20126;-69
2022/03/18 11:30:19;;;;;;;3.50;1.60;;;19.50;46.80;;;;;;6194143;28;20093;-69
2022/03/18 11:33:21;;;;;;;5.13;1.40;;;19.50;46.80;;;;;;6194563;28;20030;-69
2022/03/18 11:36:22;;;;;;;4.13;1.70;;;19.50;46.80;;;;;;6194137;28;20433;-69
2022/03/18 11:39:22;;;;;;;3.38;1.45;;;19.50;46.80;;;;;;6194221;28;20026;-69
2022/03/18 11:42:23;;;;;;;3.35;1.27;;;19.50;46.80;;;;;;6194279;28;20110;-69
2022/03/18 11:45:42;;;;;;;3.03;1.40;;;19.50;46.80;;;;;;6187148;28;20121;-69
2022/03/18 11:48:51;;;;;;;3.45;1.77;;;19.50;46.80;;;;;;6192737;28;20693;-69
2022/03/18 11:51:59;;;;;;;3.80;1.50;;;19.50;46.90;;;;;;6193774;28;20494;-69
2022/03/18 11:55:10;;;;;;;2.90;1.40;;;19.50;46.90;;;;;;6182358;28;20110;-69
2022/03/18 11:58:30;;;;;;;5.20;1.42;;;19.50;46.90;;;;;;6180584;28;20026;-69
2022/03/18 12:01:41;;;;;;;3.08;1.30;;;19.50;46.90;;;;;;6193571;28;20045;-68
2022/03/18 12:04:47;;;;;;;1.75;1.02;;;19.50;47.10;;;;;;6187431;28;20476;-69
2022/03/18 12:07:54;;;;;;;2.50;1.30;;;19.50;46.90;;;;;;6201926;28;20053;-69
2022/03/18 12:11:00;;;;;;;5.10;1.55;;;19.60;47.00;;;;;;6199552;28;20038;-69
2022/03/18 12:14:01;;;;;;;8.43;1.80;;;19.60;47.60;;;;;;6198924;28;20041;-69
2022/03/18 12:17:01;;;;;;;6.07;1.50;;;19.60;46.90;;;;;;6194170;28;20039;-69
2022/03/18 12:20:03;;;;;;;2.95;1.33;;;19.60;46.90;;;;;;6199556;28;20513;-69
2022/03/18 12:23:06;;;;;;;3.45;1.30;;;19.70;46.60;;;;;;6199244;28;20026;-69
2022/03/18 12:26:07;;;;;;;9.30;1.80;;;19.70;46.90;;;;;;6198325;28;20046;-69
2022/03/18 12:29:08;;;;;;;7.28;2.20;;;19.70;46.80;;;;;;6199265;28;20027;-69
2022/03/18 12:32:09;;;;;;;4.53;1.27;;;19.80;46.40;;;;;;6199243;28;20022;-69
2022/03/18 12:35:10;;;;;;;3.47;1.52;;;19.80;46.70;;;;;;6199387;28;20022;-68
2022/03/18 12:38:18;;;;;;;4.45;1.50;;;19.80;46.70;;;;;;6199435;28;20053;-68
2022/03/18 12:41:21;;;;;;;3.55;1.23;;;19.80;46.70;;;;;;6199024;28;20034;-69
2022/03/18 12:44:31;;;;;;;4.88;1.40;;;19.70;46.60;;;;;;6192599;28;20453;-69
2022/03/18 12:47:31;;;;;;;7.55;1.50;;;19.70;46.50;;;;;;6177588;28;20038;-69
2022/03/18 12:50:42;;;;;;;4.65;1.50;;;19.70;46.60;;;;;;6210437;28;20034;-69
2022/03/18 12:53:46;;;;;;;5.65;1.50;;;19.70;46.90;;;;;;6221522;28;20030;-69
2022/03/18 12:56:47;;;;;;;4.85;1.23;;;19.80;47.00;;;;;;6212797;28;20034;-69
2022/03/18 12:59:56;;;;;;;6.60;1.48;;;19.80;47.00;;;;;;6197413;28;20026;-69
2022/03/18 13:02:57;;;;;;;8.35;1.88;;;19.80;46.50;;;;;;6198508;28;20038;-69
2022/03/18 13:06:11;;;;;;;8.43;1.85;;;19.70;45.30;;;;;;6198520;28;20081;-69
2022/03/18 13:09:15;;;;;;;9.07;2.22;;;19.70;44.40;;;;;;6198483;28;20397;-69
2022/03/18 13:12:26;;;;;;;10.40;2.33;;;19.70;41.90;;;;;;6197807;28;20022;-69
2022/03/18 13:15:27;;;;;;;6.85;1.80;;;19.70;41.50;;;;;;6198246;28;20065;-69
2022/03/18 13:18:32;;;;;;;6.97;2.05;;;19.70;41.80;;;;;;6198651;28;20485;-69
2022/03/18 13:21:42;;;;;;;;;;;19.70;41.20;;;;;;6198473;28;20074;-69
2022/03/18 13:24:44;;;;;;;9.98;2.35;;;19.70;41.20;;;;;;6198097;28;19909;-69
2022/03/18 13:27:44;;;;;;;11.70;2.72;;;19.60;39.50;;;;;;6196630;28;20077;-69
2022/03/18 13:34:06;;;;;;;11.40;2.05;;;19.70;38.70;;;;;;6198982;28;20042;-69
2022/03/18 13:37:24;;;;;;;8.65;1.95;;;19.60;38.60;;;;;;6197764;28;20394;-69
2022/03/18 13:40:25;;;;;;;5.18;1.92;;;19.60;38.90;;;;;;6220986;28;20482;-70
2022/03/18 13:43:31;;;;;;;6.13;2.00;;;19.60;38.60;;;;;;6208898;28;20037;-69
2022/03/18 13:46:32;;;;;;;13.55;2.00;;;19.60;38.10;;;;;;6197614;28;20113;-69
2022/03/18 13:49:34;;;;;;;6.47;2.08;;;19.60;38.30;;;;;;6218276;28;20313;-69
2022/03/18 13:52:36;;;;;;;10.95;1.85;;;19.60;37.80;;;;;;6183827;28;20049;-69
2022/03/18 13:55:36;;;;;;;8.15;1.95;;;19.60;38.30;;;;;;6219648;28;20096;-69
2022/03/18 13:58:37;;;;;;;7.43;1.80;;;19.60;38.80;;;;;;6183455;28;20026;-69
2022/03/18 14:01:38;;;;;;;6.32;1.83;;;19.60;38.90;;;;;;6191576;28;20291;-69
2022/03/18 14:04:43;;;;;;;8.30;1.98;;;19.60;39.10;;;;;;6199530;28;20037;-69
2022/03/18 14:07:47;;;;;;;6.35;1.70;;;19.60;39.40;;;;;;6221885;28;20040;-69
2022/03/18 14:10:49;;;;;;;4.88;1.58;;;19.60;39.80;;;;;;6221014;28;20445;-69
2022/03/18 14:13:49;;;;;;;6.45;1.73;;;19.70;40.40;;;;;;6221328;28;20030;-69
2022/03/18 14:17:17;;;;;;;6.95;1.40;;;19.70;41.50;;;;;;6220922;28;20527;-69
2022/03/18 14:20:18;;;;;;;13.20;2.97;;;19.70;40.40;;;;;;6221055;28;20129;-69
2022/03/18 14:23:28;;;;;;;17.25;3.20;;;19.70;41.30;;;;;;6218905;28;20021;-69
2022/03/18 14:26:28;;;;;;;10.82;1.95;;;19.70;41.90;;;;;;6198534;28;20084;-69
2022/03/18 14:29:31;;;;;;;12.40;2.65;;;19.70;42.10;;;;;;6194235;28;20030;-69
2022/03/18 14:32:32;;;;;;;8.05;2.15;;;19.70;42.00;;;;;;6194234;28;20035;-69
2022/03/18 14:35:32;;;;;;;8.57;2.30;;;19.70;42.00;;;;;;6194148;28;20034;-69
2022/03/18 14:38:33;;;;;;;17.50;2.63;;;19.70;41.90;;;;;;6195294;28;20393;-69
2022/03/18 14:41:33;;;;;;;6.30;1.90;;;19.70;42.00;;;;;;6195039;28;20027;-69
2022/03/18 14:44:35;;;;;;;13.45;2.38;;;19.70;42.00;;;;;;6193505;28;20058;-69
2022/03/18 14:47:35;;;;;;;7.43;2.60;;;19.70;42.20;;;;;;6171089;28;20104;-69
2022/03/18 14:50:40;;;;;;;8.90;2.33;;;19.60;42.10;;;;;;6170547;28;20502;-69
2022/03/18 14:53:40;;;;;;;6.45;2.17;;;19.60;42.20;;;;;;6170503;28;20081;-69
2022/03/18 14:56:41;;;;;;;4.53;1.73;;;19.60;42.30;;;;;;6179545;28;20034;-69
2022/03/18 14:59:41;;;;;;;7.57;2.45;;;19.70;42.40;;;;;;6193098;28;20022;-69
2022/03/18 15:02:42;;;;;;;7.28;2.60;;;19.60;42.40;;;;;;6194462;28;20062;-69
2022/03/18 15:05:43;;;;;;;9.05;2.30;;;19.60;43.20;;;;;;6193942;28;20508;-69
2022/03/18 15:08:45;;;;;;;12.63;2.45;;;19.60;42.60;;;;;;6194382;28;20026;-69
2022/03/18 15:11:46;;;;;;;6.68;2.15;;;19.60;42.60;;;;;;6193912;28;20022;-69
2022/03/18 15:14:47;;;;;;;7.88;2.15;;;19.60;42.70;;;;;;6193167;28;20057;-69
2022/03/18 15:17:48;;;;;;;9.00;2.13;;;19.60;42.80;;;;;;6194320;28;20501;-69
2022/03/18 15:20:53;;;;;;;8.88;2.17;;;19.60;42.90;;;;;;6193918;28;20048;-70
2022/03/18 15:23:53;;;;;;;;;;;19.60;43.00;;;;;;6194172;28;20038;-69
2022/03/18 15:26:54;;;;;;;7.40;1.92;;;19.60;43.00;;;;;;6194050;28;20400;-69
2022/03/18 15:29:55;;;;;;;11.13;1.83;;;19.60;43.10;;;;;;6194084;28;20101;-69
2022/03/18 15:32:56;;;;;;;6.13;2.05;;;19.60;43.20;;;;;;6193860;28;20389;-69
2022/03/18 15:35:58;;;;;;;6.75;2.03;;;19.60;43.20;;;;;;6197840;28;20532;-69
2022/03/18 15:38:59;;;;;;;4.63;1.90;;;19.60;43.20;;;;;;6199097;28;20426;-69
2022/03/18 15:42:01;;;;;;;3.47;1.60;;;19.60;43.30;;;;;;6198418;28;20224;-69
2022/03/18 15:45:02;;;;;;;6.40;2.20;;;19.60;43.30;;;;;;6198696;28;20401;-69
2022/03/18 15:48:03;;;;;;;5.00;1.60;;;19.60;43.40;;;;;;6198977;28;20022;-69
2022/03/18 15:51:05;;;;;;;4.93;1.80;;;19.60;43.40;;;;;;6198508;28;20038;-69
2022/03/18 15:54:09;;;;;;;7.55;1.80;;;19.60;43.50;;;;;;6198512;28;20255;-69
2022/03/18 15:57:12;;;;;;;5.78;2.30;;;19.60;43.50;;;;;;6198874;28;20077;-69
2022/03/18 16:00:13;;;;;;;4.55;1.73;;;19.60;43.60;;;;;;6198704;28;20029;-69
2022/03/18 16:03:13;;;;;;;4.90;2.13;;;19.60;43.60;;;;;;6198336;28;20091;-69
2022/03/18 16:06:14;;;;;;;5.53;1.65;;;19.60;43.60;;;;;;6198305;28;20050;-69
2022/03/18 16:09:15;;;;;;;3.58;1.55;;;19.60;43.60;;;;;;6197393;28;20117;-69